createdAt,value
2023-04-04T00:01:13.532Z,13.03
2023-04-04T00:03:41.529Z,13.25
2023-04-04T00:06:09.489Z,13.13
2023-04-04T00:08:37.300Z,13.20
2023-04-04T00:11:06.622Z,13.12
2023-04-04T00:13:34.543Z,13.06
2023-04-04T00:16:02.678Z,12.74
2023-04-04T00:18:30.343Z,12.82
2023-04-04T00:20:58.584Z,12.96
2023-04-04T00:23:26.166Z,12.49
2023-04-04T00:25:54.323Z,12.56
2023-04-04T00:28:22.352Z,12.75
2023-04-04T00:30:50.407Z,12.73
2023-04-04T00:33:18.148Z,12.84
2023-04-04T00:35:48.475Z,12.73
2023-04-04T00:38:16.298Z,12.67
2023-04-04T00:40:46.432Z,12.47
2023-04-04T00:43:14.571Z,12.24
2023-04-04T00:45:43.284Z,12.30
2023-04-04T00:48:11.178Z,12.41
2023-04-04T00:50:39.862Z,12.55
2023-04-04T00:53:08.062Z,12.59
2023-04-04T00:55:39.782Z,12.24
2023-04-04T00:58:09.347Z,12.28
2023-04-04T01:00:37.810Z,12.48
2023-04-04T01:03:08.030Z,12.42
2023-04-04T01:05:36.259Z,12.43
2023-04-04T01:08:04.238Z,12.37
2023-04-04T01:10:33.194Z,12.55
2023-04-04T01:13:01.514Z,12.52
2023-04-04T01:15:30.231Z,12.58
2023-04-04T01:18:00.319Z,12.53
2023-04-04T01:20:32.750Z,12.59
2023-04-04T01:23:02.055Z,12.47
2023-04-04T01:25:34.142Z,12.52
2023-04-04T01:28:06.093Z,12.40
2023-04-04T01:30:36.014Z,12.48
2023-04-04T01:33:14.198Z,12.61
2023-04-04T01:35:51.215Z,12.17
2023-04-04T01:38:23.289Z,12.07
2023-04-04T01:40:53.732Z,12.07
2023-04-04T01:43:23.899Z,12.14
2023-04-04T01:45:52.566Z,12.06
2023-04-04T01:48:21.026Z,12.21
2023-04-04T01:50:53.323Z,12.36
2023-04-04T01:53:22.274Z,12.31
2023-04-04T01:55:50.252Z,12.23
2023-04-04T01:58:18.577Z,12.06
2023-04-04T02:00:46.805Z,11.92
2023-04-04T02:03:14.437Z,12.22
2023-04-04T02:05:42.948Z,11.93
2023-04-04T02:08:10.907Z,11.76
2023-04-04T02:10:47.973Z,11.68
2023-04-04T02:13:15.943Z,12.00
2023-04-04T02:15:45.894Z,11.84
2023-04-04T02:18:13.981Z,11.80
2023-04-04T02:20:42.385Z,11.88
2023-04-04T02:23:10.214Z,12.20
2023-04-04T02:25:38.146Z,11.86
2023-04-04T02:28:05.932Z,11.88
2023-04-04T02:30:33.913Z,11.80
2023-04-04T02:33:05.210Z,11.75
2023-04-04T02:35:33.320Z,11.89
2023-04-04T02:38:01.131Z,11.89
2023-04-04T02:40:42.521Z,11.85
2023-04-04T02:43:10.420Z,11.88
2023-04-04T02:45:39.460Z,11.93
2023-04-04T02:48:15.952Z,11.89
2023-04-04T02:50:48.707Z,11.78
2023-04-04T02:53:17.557Z,11.91
2023-04-04T02:55:48.095Z,11.75
2023-04-04T02:58:16.547Z,11.80
2023-04-04T03:00:44.754Z,11.84
2023-04-04T03:03:12.645Z,11.89
2023-04-04T03:05:45.210Z,11.92
2023-04-04T03:08:12.944Z,11.79
2023-04-04T03:10:41.965Z,12.01
2023-04-04T03:13:09.785Z,11.68
2023-04-04T03:15:38.120Z,11.72
2023-04-04T03:18:05.906Z,11.56
2023-04-04T03:20:35.119Z,11.49
2023-04-04T03:23:02.763Z,11.44
2023-04-04T03:25:30.766Z,11.61
2023-04-04T03:27:58.422Z,11.39
2023-04-04T03:30:28.085Z,11.51
2023-04-04T03:32:56.921Z,11.55
2023-04-04T03:35:25.188Z,11.47
2023-04-04T03:37:54.928Z,11.31
2023-04-04T03:40:22.893Z,11.27
2023-04-04T03:42:51.693Z,11.02
2023-04-04T03:45:21.288Z,11.31
2023-04-04T03:47:48.996Z,11.05
2023-04-04T03:50:17.056Z,11.17
2023-04-04T03:52:52.912Z,11.13
2023-04-04T03:55:20.880Z,11.29
2023-04-04T03:57:48.647Z,11.45
2023-04-04T04:00:18.210Z,11.28
2023-04-04T04:02:46.602Z,11.19
2023-04-04T04:05:15.005Z,11.29
2023-04-04T04:07:45.874Z,11.34
2023-04-04T04:10:17.187Z,11.22
2023-04-04T04:12:44.978Z,11.30
2023-04-04T04:15:13.130Z,11.17
2023-04-04T04:17:43.506Z,11.27
2023-04-04T04:20:13.754Z,11.07
2023-04-04T04:22:49.934Z,11.31
2023-04-04T04:25:19.088Z,11.27
2023-04-04T04:27:57.865Z,11.09
2023-04-04T04:30:27.845Z,11.28
2023-04-04T04:32:56.442Z,11.04
2023-04-04T04:35:31.136Z,11.07
2023-04-04T04:37:59.846Z,11.01
2023-04-04T04:40:28.056Z,11.03
2023-04-04T04:43:01.696Z,11.11
2023-04-04T04:45:30.078Z,11.16
2023-04-04T04:48:09.762Z,10.97
2023-04-04T04:50:46.207Z,11.07
2023-04-04T04:53:17.096Z,11.01
2023-04-04T04:55:47.541Z,11.15
2023-04-04T04:58:17.728Z,11.13
2023-04-04T05:00:50.335Z,11.13
2023-04-04T05:03:18.305Z,10.91
2023-04-04T05:05:51.591Z,10.97
2023-04-04T05:08:19.357Z,11.10
2023-04-04T05:11:05.662Z,11.01
2023-04-04T05:13:35.419Z,10.94
2023-04-04T05:16:05.064Z,11.02
2023-04-04T05:18:34.961Z,11.09
2023-04-04T05:21:04.816Z,11.02
2023-04-04T05:23:33.165Z,10.93
2023-04-04T05:26:03.331Z,11.11
2023-04-04T05:28:35.789Z,10.90
2023-04-04T05:31:06.969Z,11.19
2023-04-04T05:33:36.955Z,11.18
2023-04-04T05:36:14.204Z,11.30
2023-04-04T05:38:48.160Z,11.25
2023-04-04T05:41:22.412Z,11.37
2023-04-04T05:43:52.618Z,11.42
2023-04-04T05:46:24.819Z,11.34
2023-04-04T05:48:54.571Z,11.34
2023-04-04T05:51:24.281Z,11.45
2023-04-04T05:54:18.589Z,11.54
2023-04-04T05:56:48.078Z,11.76
2023-04-04T05:59:39.244Z,12.04
2023-04-04T06:02:10.364Z,12.02
2023-04-04T06:04:42.161Z,11.96
2023-04-04T06:07:12.430Z,11.95
2023-04-04T06:09:41.526Z,12.01
2023-04-04T06:12:09.927Z,12.07
2023-04-04T06:14:38.280Z,12.12
2023-04-04T06:17:08.342Z,12.10
2023-04-04T06:19:36.560Z,12.55
2023-04-04T06:22:04.783Z,12.24
2023-04-04T06:24:37.416Z,12.36
2023-04-04T06:27:06.868Z,12.36
2023-04-04T06:29:37.705Z,12.28
2023-04-04T06:32:08.077Z,12.02
2023-04-04T06:34:40.024Z,12.25
2023-04-04T06:37:09.069Z,12.18
2023-04-04T06:39:44.083Z,12.40
2023-04-04T06:42:21.617Z,13.04
2023-04-04T06:44:52.212Z,12.79
2023-04-04T06:47:21.751Z,12.56
2023-04-04T06:49:49.651Z,12.97
2023-04-04T06:52:19.029Z,13.01
2023-04-04T06:54:46.825Z,13.07
2023-04-04T06:57:16.134Z,12.81
2023-04-04T06:59:45.188Z,13.23
2023-04-04T07:02:13.627Z,13.31
2023-04-04T07:04:42.209Z,13.33
2023-04-04T07:07:10.428Z,13.43
2023-04-04T07:09:38.286Z,13.54
2023-04-04T07:12:06.454Z,13.31
2023-04-04T07:14:34.301Z,13.09
2023-04-04T07:17:10.660Z,13.48
2023-04-04T07:19:45.185Z,13.48
2023-04-04T07:22:13.579Z,13.50
2023-04-04T07:24:42.695Z,13.73
2023-04-04T07:27:11.536Z,13.75
2023-04-04T07:29:39.348Z,13.62
2023-04-04T07:32:07.695Z,13.52
2023-04-04T07:34:35.546Z,13.45
2023-04-04T07:37:04.062Z,13.35
2023-04-04T07:39:32.233Z,13.41
2023-04-04T07:42:00.788Z,13.74
2023-04-04T07:44:28.642Z,13.80
2023-04-04T07:47:08.556Z,14.30
2023-04-04T07:49:37.811Z,14.35
2023-04-04T07:52:06.751Z,14.21
2023-04-04T07:54:34.844Z,13.95
2023-04-04T07:57:06.258Z,14.33
2023-04-04T07:59:33.961Z,13.80
2023-04-04T08:02:02.044Z,14.13
2023-04-04T08:04:29.923Z,14.56
2023-04-04T08:06:58.143Z,14.24
2023-04-04T08:09:25.956Z,14.43
2023-04-04T08:11:53.937Z,14.62
2023-04-04T08:14:21.649Z,14.78
2023-04-04T08:16:49.749Z,14.50
2023-04-04T08:19:18.047Z,14.63
2023-04-04T08:21:46.404Z,14.31
2023-04-04T08:24:14.885Z,14.61
2023-04-04T08:26:45.262Z,14.48
2023-04-04T08:29:17.205Z,14.89
2023-04-04T08:31:45.281Z,14.85
2023-04-04T08:34:13.730Z,15.46
2023-04-04T08:36:41.955Z,15.08
2023-04-04T08:39:09.755Z,14.77
2023-04-04T08:41:38.245Z,15.41
2023-04-04T08:44:06.437Z,15.05
2023-04-04T08:46:34.766Z,14.64
2023-04-04T08:49:04.507Z,14.42
2023-04-04T08:51:33.328Z,14.91
2023-04-04T08:54:01.602Z,13.77
2023-04-04T08:56:30.031Z,14.67
2023-04-04T08:58:59.223Z,14.96
2023-04-04T09:01:29.928Z,15.44
2023-04-04T09:03:58.716Z,15.00
2023-04-04T09:06:28.126Z,14.17
2023-04-04T09:08:58.056Z,14.23
2023-04-04T09:11:27.281Z,14.70
2023-04-04T09:13:57.177Z,14.64
2023-04-04T09:16:26.436Z,15.57
2023-04-04T09:18:54.139Z,15.82
2023-04-04T09:21:22.253Z,15.87
2023-04-04T09:23:58.264Z,16.19
2023-04-04T09:26:26.341Z,16.19
2023-04-04T09:28:54.286Z,16.43
2023-04-04T09:31:24.570Z,16.54
2023-04-04T09:33:52.456Z,15.89
2023-04-04T09:36:20.755Z,15.13
2023-04-04T09:38:49.619Z,16.22
2023-04-04T09:41:19.004Z,16.93
2023-04-04T09:43:46.975Z,16.82
2023-04-04T09:46:16.265Z,15.96
2023-04-04T09:48:48.854Z,16.55
2023-04-04T09:51:16.942Z,16.63
2023-04-04T09:53:49.546Z,16.70
2023-04-04T09:56:17.700Z,16.75
2023-04-04T09:59:00.771Z,16.03
2023-04-04T10:01:31.944Z,15.95
2023-04-04T10:03:59.960Z,16.09
2023-04-04T10:06:28.213Z,15.78
2023-04-04T10:08:57.035Z,15.86
2023-04-04T10:11:43.117Z,16.21
2023-04-04T10:14:11.094Z,16.55
2023-04-04T10:16:44.940Z,17.95
2023-04-04T10:19:15.965Z,18.30
2023-04-04T10:21:44.019Z,18.83
2023-04-04T10:24:11.708Z,19.06
2023-04-04T10:26:39.770Z,18.67
2023-04-04T10:29:07.471Z,18.12
2023-04-04T10:31:38.550Z,18.69
2023-04-04T10:34:17.746Z,18.38
2023-04-04T10:36:54.205Z,16.36
2023-04-04T10:39:25.343Z,16.40
2023-04-04T10:41:54.203Z,17.71
2023-04-04T10:44:34.903Z,17.16
2023-04-04T10:47:06.723Z,17.88
2023-04-04T10:49:34.723Z,16.41
2023-04-04T10:52:03.146Z,17.85
2023-04-04T10:54:30.896Z,16.29
2023-04-04T10:57:01.641Z,16.25
2023-04-04T10:59:29.546Z,17.51
2023-04-04T11:01:59.081Z,18.45
2023-04-04T11:04:38.524Z,18.94
2023-04-04T11:07:07.217Z,16.80
2023-04-04T11:09:53.579Z,17.61
2023-04-04T11:12:24.105Z,18.12
2023-04-04T11:15:10.529Z,17.07
2023-04-04T11:17:50.499Z,18.60
2023-04-04T11:20:18.224Z,16.26
2023-04-04T11:22:46.223Z,15.64
2023-04-04T11:25:33.221Z,15.99
2023-04-04T11:28:05.375Z,16.46
2023-04-04T11:30:37.976Z,16.71
2023-04-04T11:33:08.249Z,17.87
2023-04-04T11:35:38.849Z,16.25
2023-04-04T11:38:14.220Z,16.72
2023-04-04T11:40:43.012Z,19.12
2023-04-04T11:43:12.177Z,19.68
2023-04-04T11:45:46.280Z,18.75
2023-04-04T11:48:16.294Z,16.86
2023-04-04T11:50:46.014Z,16.26
2023-04-04T11:53:13.995Z,17.03
2023-04-04T11:55:43.057Z,18.08
2023-04-04T11:58:13.282Z,17.03
2023-04-04T12:00:41.733Z,17.58
2023-04-04T12:03:13.904Z,17.69
2023-04-04T12:05:43.670Z,19.53
2023-04-04T12:08:12.716Z,19.88
2023-04-04T12:10:41.078Z,18.39
2023-04-04T12:13:09.974Z,18.19
2023-04-04T12:15:38.341Z,18.56
2023-04-04T12:18:10.014Z,18.20
2023-04-04T12:20:38.735Z,17.08
2023-04-04T12:23:06.883Z,18.11
2023-04-04T12:25:35.209Z,17.79
2023-04-04T12:28:04.758Z,18.32
2023-04-04T12:30:32.509Z,18.49
2023-04-04T12:33:00.882Z,17.88
2023-04-04T12:35:29.766Z,19.33
2023-04-04T12:37:58.701Z,20.45
2023-04-04T12:40:29.743Z,20.07
2023-04-04T12:42:57.689Z,20.72
2023-04-04T12:45:26.231Z,21.98
2023-04-04T12:47:54.830Z,22.22
2023-04-04T12:50:24.084Z,21.79
2023-04-04T12:52:55.461Z,22.47
2023-04-04T12:55:31.716Z,22.70
2023-04-04T12:58:01.053Z,22.42
2023-04-04T13:00:29.916Z,19.73
2023-04-04T13:02:57.917Z,18.96
2023-04-04T13:05:25.965Z,19.77
2023-04-04T13:08:05.261Z,18.35
2023-04-04T13:10:52.878Z,19.65
2023-04-04T13:13:53.138Z,19.27
2023-04-04T13:16:34.211Z,18.13
2023-04-04T13:19:02.567Z,18.23
2023-04-04T13:21:31.198Z,18.53
2023-04-04T13:23:59.332Z,18.04
2023-04-04T13:26:28.139Z,19.77
2023-04-04T13:28:56.142Z,18.62
2023-04-04T13:31:23.892Z,19.22
2023-04-04T13:33:51.973Z,20.62
2023-04-04T13:36:19.816Z,20.72
2023-04-04T13:38:47.768Z,18.83
2023-04-04T13:41:15.515Z,18.15
2023-04-04T13:43:43.409Z,18.03
2023-04-04T13:46:11.302Z,19.18
2023-04-04T13:48:39.373Z,20.69
2023-04-04T13:51:07.494Z,20.28
2023-04-04T13:53:35.405Z,19.52
2023-04-04T13:56:17.954Z,20.01
2023-04-04T13:58:46.583Z,18.40
2023-04-04T14:01:14.267Z,18.02
2023-04-04T14:03:42.526Z,17.95
2023-04-04T14:06:11.134Z,18.98
2023-04-04T14:08:40.123Z,17.62
2023-04-04T14:11:07.987Z,18.13
2023-04-04T14:13:36.994Z,18.69
2023-04-04T14:16:04.846Z,18.62
2023-04-04T14:18:34.719Z,20.16
2023-04-04T14:21:03.207Z,19.35
2023-04-04T14:23:31.767Z,19.36
2023-04-04T14:25:59.426Z,19.75
2023-04-04T14:28:27.716Z,18.40
2023-04-04T14:30:55.411Z,19.16
2023-04-04T14:33:23.803Z,18.81
2023-04-04T14:35:51.911Z,21.04
2023-04-04T14:38:19.902Z,19.51
2023-04-04T14:40:48.682Z,21.42
2023-04-04T14:43:16.633Z,20.50
2023-04-04T14:45:44.262Z,20.87
2023-04-04T14:48:12.194Z,19.42
2023-04-04T14:50:40.583Z,18.44
2023-04-04T14:53:08.509Z,17.89
2023-04-04T14:55:36.241Z,17.84
2023-04-04T14:58:04.202Z,18.43
2023-04-04T15:00:32.004Z,20.11
2023-04-04T15:02:59.999Z,18.80
2023-04-04T15:05:27.803Z,19.10
2023-04-04T15:07:56.050Z,20.01
2023-04-04T15:10:24.048Z,19.27
2023-04-04T15:12:52.097Z,19.60
2023-04-04T15:15:21.110Z,18.48
2023-04-04T15:17:50.952Z,19.25
2023-04-04T15:20:18.606Z,20.51
2023-04-04T15:22:46.793Z,19.15
2023-04-04T15:25:14.467Z,19.29
2023-04-04T15:27:42.573Z,18.27
2023-04-04T15:30:10.346Z,18.00
2023-04-04T15:32:38.368Z,18.42
2023-04-04T15:35:06.937Z,17.85
2023-04-04T15:37:34.861Z,18.14
2023-04-04T15:40:02.462Z,18.27
2023-04-04T15:42:31.993Z,17.96
2023-04-04T15:44:59.754Z,19.36
2023-04-04T15:47:27.741Z,18.16
2023-04-04T15:49:55.742Z,18.54
2023-04-04T15:52:23.692Z,17.96
2023-04-04T15:54:51.522Z,17.19
2023-04-04T15:57:19.842Z,16.58
2023-04-04T15:59:47.749Z,16.74
2023-04-04T16:02:16.528Z,18.14
2023-04-04T16:04:44.165Z,17.40
2023-04-04T16:07:12.135Z,16.99
2023-04-04T16:09:39.903Z,17.33
2023-04-04T16:12:08.002Z,16.65
2023-04-04T16:14:35.699Z,16.51
2023-04-04T16:17:03.736Z,17.44
2023-04-04T16:19:31.389Z,17.35
2023-04-04T16:21:59.553Z,17.34
2023-04-04T16:24:27.688Z,16.59
2023-04-04T16:26:56.466Z,15.89
2023-04-04T16:29:24.338Z,16.41
2023-04-04T16:31:53.374Z,16.62
2023-04-04T16:34:20.977Z,16.71
2023-04-04T16:36:49.450Z,17.81
2023-04-04T16:39:17.302Z,17.98
2023-04-04T16:41:45.204Z,18.03
2023-04-04T16:44:13.704Z,16.72
2023-04-04T16:46:41.890Z,16.42
2023-04-04T16:49:10.191Z,16.98
2023-04-04T16:51:38.377Z,16.32
2023-04-04T16:54:06.288Z,16.08
2023-04-04T16:56:34.656Z,15.95
2023-04-04T16:59:02.383Z,16.21
2023-04-04T17:01:31.947Z,15.69
2023-04-04T17:03:59.978Z,15.86
2023-04-04T17:06:28.233Z,15.85
2023-04-04T17:08:56.174Z,16.35
2023-04-04T17:11:24.242Z,15.79
2023-04-04T17:13:52.128Z,15.70
2023-04-04T17:16:20.255Z,15.57
2023-04-04T17:18:48.121Z,15.46
2023-04-04T17:21:16.080Z,15.96
2023-04-04T17:23:43.989Z,15.25
2023-04-04T17:26:12.549Z,15.44
2023-04-04T17:28:42.321Z,14.93
2023-04-04T17:31:11.987Z,15.07
2023-04-04T17:33:39.895Z,15.60
2023-04-04T17:36:08.468Z,15.06
2023-04-04T17:38:36.678Z,14.92
2023-04-04T17:41:04.988Z,14.57
2023-04-04T17:43:32.805Z,14.61
2023-04-04T17:46:02.989Z,14.42
2023-04-04T17:48:32.648Z,14.38
2023-04-04T17:51:00.684Z,14.49
2023-04-04T17:53:28.572Z,14.05
2023-04-04T17:55:56.733Z,13.98
2023-04-04T17:58:26.074Z,14.09
2023-04-04T18:00:56.321Z,14.10
2023-04-04T18:03:24.516Z,13.93
2023-04-04T18:05:53.085Z,14.16
2023-04-04T18:08:22.012Z,14.00
2023-04-04T18:10:51.635Z,13.91
2023-04-04T18:13:19.248Z,13.98
2023-04-04T18:15:47.687Z,13.92
2023-04-04T18:18:15.424Z,13.23
2023-04-04T18:20:43.826Z,13.52
2023-04-04T18:23:12.090Z,13.60
2023-04-04T18:25:40.327Z,13.55
2023-04-04T18:28:08.272Z,13.32
2023-04-04T18:30:37.509Z,13.48
2023-04-04T18:33:06.285Z,13.82
2023-04-04T18:35:34.520Z,13.54
2023-04-04T18:38:02.671Z,13.47
2023-04-04T18:40:31.271Z,13.22
2023-04-04T18:42:59.290Z,13.29
2023-04-04T18:45:37.402Z,13.54
2023-04-04T18:48:08.514Z,13.84
2023-04-04T18:50:37.110Z,13.76
2023-04-04T18:53:05.343Z,14.18
2023-04-04T18:55:33.782Z,14.05
2023-04-04T18:58:01.547Z,14.07
2023-04-04T19:00:29.523Z,14.06
2023-04-04T19:02:57.789Z,14.32
2023-04-04T19:05:25.893Z,14.43
2023-04-04T19:07:54.702Z,14.32
2023-04-04T19:10:22.776Z,14.57
2023-04-04T19:12:51.081Z,14.43
2023-04-04T19:15:19.408Z,14.43
2023-04-04T19:17:47.416Z,14.47
2023-04-04T19:20:15.668Z,14.33
2023-04-04T19:22:43.407Z,14.38
2023-04-04T19:25:11.883Z,14.22
2023-04-04T19:27:39.825Z,14.24
2023-04-04T19:30:26.613Z,13.97
2023-04-04T19:32:54.470Z,14.02
2023-04-04T19:35:43.392Z,13.73
2023-04-04T19:38:13.379Z,13.83
2023-04-04T19:40:47.307Z,13.70
2023-04-04T19:43:18.565Z,13.78
2023-04-04T19:45:50.974Z,13.80
2023-04-04T19:48:38.033Z,13.83
2023-04-04T19:51:09.215Z,13.57
2023-04-04T19:53:37.545Z,13.71
2023-04-04T19:56:10.968Z,13.67
2023-04-04T19:58:39.071Z,13.70
2023-04-04T20:01:07.831Z,13.58
2023-04-04T20:03:37.871Z,13.63
2023-04-04T20:06:13.447Z,13.71
2023-04-04T20:08:44.400Z,13.61
2023-04-04T20:11:13.708Z,13.66
2023-04-04T20:13:41.685Z,13.95
2023-04-04T20:16:16.827Z,13.56
2023-04-04T20:18:45.302Z,13.86
2023-04-04T20:21:17.170Z,13.70
2023-04-04T20:23:47.710Z,13.67
2023-04-04T20:26:34.385Z,13.74
2023-04-04T20:29:02.820Z,13.63
2023-04-04T20:31:34.157Z,13.70
2023-04-04T20:34:02.079Z,13.59
2023-04-04T20:36:33.243Z,13.69
2023-04-04T20:39:00.959Z,13.84
2023-04-04T20:41:29.034Z,13.68
2023-04-04T20:43:57.972Z,13.61
2023-04-04T20:46:27.120Z,13.63
2023-04-04T20:48:57.078Z,13.51
2023-04-04T20:51:27.933Z,13.55
2023-04-04T20:53:56.750Z,13.72
2023-04-04T20:56:36.963Z,13.51
2023-04-04T20:59:27.195Z,13.21
2023-04-04T21:01:55.946Z,13.24
2023-04-04T21:04:25.895Z,13.42
2023-04-04T21:06:53.914Z,13.11
2023-04-04T21:09:21.536Z,13.29
2023-04-04T21:11:49.514Z,13.28
2023-04-04T21:14:23.938Z,13.39
2023-04-04T21:16:51.916Z,13.43
2023-04-04T21:19:21.751Z,13.42
2023-04-04T21:21:51.386Z,13.29
2023-04-04T21:24:19.106Z,12.94
2023-04-04T21:26:48.857Z,13.14
2023-04-04T21:29:17.981Z,12.85
2023-04-04T21:31:47.005Z,13.16
2023-04-04T21:34:15.906Z,13.14
2023-04-04T21:36:44.542Z,13.14
2023-04-04T21:39:13.895Z,13.22
2023-04-04T21:41:43.669Z,12.26
2023-04-04T21:44:11.489Z,11.49
2023-04-04T21:46:40.401Z,11.06
2023-04-04T21:49:09.202Z,11.33
2023-04-04T21:51:37.295Z,11.57
2023-04-04T21:54:05.238Z,11.57
2023-04-04T21:56:36.052Z,11.06
2023-04-04T21:59:05.433Z,11.24
2023-04-04T22:01:33.528Z,11.45
2023-04-04T22:04:01.652Z,11.64
2023-04-04T22:06:31.026Z,12.20
2023-04-04T22:08:59.408Z,12.31
2023-04-04T22:11:27.990Z,12.48
2023-04-04T22:14:07.494Z,12.45
2023-04-04T22:16:43.280Z,12.40
2023-04-04T22:19:11.761Z,12.59
2023-04-04T22:21:47.029Z,12.82
2023-04-04T22:24:16.020Z,12.53
2023-04-04T22:26:46.342Z,12.65
2023-04-04T22:29:16.301Z,12.68
2023-04-04T22:31:44.654Z,12.52
2023-04-04T22:34:14.794Z,12.30
2023-04-04T22:36:44.083Z,12.39
2023-04-04T22:39:12.207Z,12.35
2023-04-04T22:41:40.195Z,12.34
2023-04-04T22:44:07.762Z,12.37
2023-04-04T22:46:37.269Z,12.27
2023-04-04T22:49:06.380Z,12.12
2023-04-04T22:51:44.243Z,12.22
2023-04-04T22:54:14.620Z,12.26
2023-04-04T22:56:43.154Z,12.37
2023-04-04T22:59:11.044Z,12.39
2023-04-04T23:01:39.470Z,12.08
2023-04-04T23:04:07.206Z,12.01
2023-04-04T23:06:36.295Z,12.10
2023-04-04T23:09:04.369Z,12.00
2023-04-04T23:11:32.418Z,11.79
2023-04-04T23:14:00.744Z,11.96
2023-04-04T23:16:29.180Z,11.96
2023-04-04T23:18:57.356Z,11.78
2023-04-04T23:21:25.361Z,11.91
2023-04-04T23:23:52.984Z,11.88
2023-04-04T23:26:20.988Z,11.68
2023-04-04T23:28:49.005Z,11.50
2023-04-04T23:31:17.407Z,11.61
2023-04-04T23:33:45.244Z,11.44
2023-04-04T23:36:13.286Z,11.52
2023-04-04T23:38:41.508Z,11.42
2023-04-04T23:41:10.234Z,11.46
2023-04-04T23:43:38.837Z,11.35
2023-04-04T23:46:06.532Z,11.14
2023-04-04T23:48:36.527Z,11.18
2023-04-04T23:51:04.414Z,11.26
2023-04-04T23:53:32.474Z,11.21
2023-04-04T23:56:00.738Z,11.10
2023-04-04T23:58:28.699Z,11.10
